createdAt,value
2022-09-22T00:01:06.503Z,2.40
2022-09-22T00:03:58.968Z,2.00
2022-09-22T00:06:48.585Z,2.30
2022-09-22T00:09:35.492Z,2.60
2022-09-22T00:12:22.572Z,2.37
2022-09-22T00:15:11.278Z,2.50
2022-09-22T00:17:58.188Z,2.40
2022-09-22T00:20:45.114Z,2.10
2022-09-22T00:23:32.981Z,1.87
2022-09-22T00:26:22.551Z,2.27
2022-09-22T00:29:13.016Z,2.00
2022-09-22T00:32:06.357Z,2.30
2022-09-22T00:34:54.178Z,2.30
2022-09-22T00:37:41.087Z,2.10
2022-09-22T00:40:28.007Z,1.87
2022-09-22T00:43:21.036Z,2.00
2022-09-22T00:46:26.628Z,1.97
2022-09-22T00:49:15.225Z,1.87
2022-09-22T00:52:02.269Z,1.97
2022-09-22T00:54:52.427Z,2.10
2022-09-22T00:57:42.713Z,2.17
2022-09-22T01:00:29.702Z,2.10
2022-09-22T01:03:25.102Z,2.00
2022-09-22T01:06:21.130Z,1.90
2022-09-22T01:09:08.527Z,2.10
2022-09-22T01:11:55.454Z,2.43
2022-09-22T01:15:05.282Z,2.07
2022-09-22T01:18:34.390Z,1.90
2022-09-22T01:21:36.863Z,1.50
2022-09-22T01:24:45.128Z,1.90
2022-09-22T01:27:53.639Z,2.07
2022-09-22T01:31:18.847Z,2.00
2022-09-22T01:34:14.252Z,2.23
2022-09-22T01:37:17.159Z,2.47
2022-09-22T01:40:14.734Z,2.50
2022-09-22T01:43:30.661Z,2.13
2022-09-22T01:46:26.863Z,2.10
2022-09-22T01:49:15.418Z,1.50
2022-09-22T01:52:17.342Z,1.80
2022-09-22T01:55:32.556Z,2.13
2022-09-22T01:58:25.174Z,1.97
2022-09-22T02:01:19.603Z,2.20
2022-09-22T02:04:16.657Z,2.20
2022-09-22T02:07:09.015Z,2.20
2022-09-22T02:09:56.623Z,2.17
2022-09-22T02:12:43.962Z,1.80
2022-09-22T02:15:49.372Z,1.63
2022-09-22T02:19:14.818Z,1.80
2022-09-22T02:22:02.391Z,1.73
2022-09-22T02:24:49.322Z,2.00
2022-09-22T02:27:36.764Z,1.80
2022-09-22T02:30:24.024Z,1.90
2022-09-22T02:33:11.881Z,2.00
2022-09-22T02:36:45.170Z,2.40
2022-09-22T02:39:56.967Z,1.87
2022-09-22T02:42:51.941Z,1.40
2022-09-22T02:45:49.507Z,1.87
2022-09-22T02:48:46.335Z,1.80
2022-09-22T02:51:34.443Z,1.67
2022-09-22T02:54:22.471Z,2.00
2022-09-22T02:57:09.641Z,2.10
2022-09-22T02:59:56.644Z,2.07
2022-09-22T03:02:43.565Z,1.90
2022-09-22T03:05:30.630Z,1.67
2022-09-22T03:08:17.707Z,2.00
2022-09-22T03:11:04.793Z,2.13
2022-09-22T03:13:52.135Z,2.30
2022-09-22T03:16:39.042Z,2.40
2022-09-22T03:19:26.027Z,2.20
2022-09-22T03:22:12.948Z,1.90
2022-09-22T03:24:59.856Z,2.03
2022-09-22T03:27:47.774Z,1.27
2022-09-22T03:30:37.145Z,1.90
2022-09-22T03:33:24.106Z,2.27
2022-09-22T03:36:11.121Z,2.43
2022-09-22T03:38:59.324Z,2.23
2022-09-22T03:41:46.641Z,2.00
2022-09-22T03:44:33.557Z,2.30
2022-09-22T03:47:20.627Z,1.97
2022-09-22T03:50:08.388Z,2.40
2022-09-22T03:52:57.697Z,1.90
2022-09-22T03:55:44.628Z,2.33
2022-09-22T03:58:31.566Z,2.47
2022-09-22T04:01:18.533Z,2.13
2022-09-22T04:04:05.737Z,2.40
2022-09-22T04:06:52.705Z,2.30
2022-09-22T04:09:39.970Z,1.90
2022-09-22T04:12:26.861Z,1.90
2022-09-22T04:15:13.943Z,1.80
2022-09-22T04:18:00.862Z,1.83
2022-09-22T04:20:47.962Z,1.73
2022-09-22T04:23:36.679Z,1.80
2022-09-22T04:26:23.731Z,2.40
2022-09-22T04:29:10.646Z,1.97
2022-09-22T04:31:57.536Z,2.37
2022-09-22T04:34:44.903Z,3.13
2022-09-22T04:37:32.013Z,3.10
2022-09-22T04:40:20.239Z,3.90
2022-09-22T04:43:07.198Z,4.30
2022-09-22T04:45:54.186Z,3.13
2022-09-22T04:48:41.110Z,2.60
2022-09-22T04:51:28.022Z,3.00
2022-09-22T04:54:15.257Z,2.80
2022-09-22T04:57:03.005Z,2.70
2022-09-22T04:59:49.929Z,2.20
2022-09-22T05:02:36.869Z,2.60
2022-09-22T05:05:27.730Z,2.73
2022-09-22T05:08:16.232Z,2.70
2022-09-22T05:11:06.601Z,2.30
2022-09-22T05:13:53.545Z,2.50
2022-09-22T05:16:41.930Z,2.90
2022-09-22T05:19:29.387Z,3.00
2022-09-22T05:22:16.396Z,3.10
2022-09-22T05:25:03.439Z,3.00
2022-09-22T05:27:53.104Z,2.77
2022-09-22T05:30:40.071Z,2.03
2022-09-22T05:33:27.126Z,1.40
2022-09-22T05:36:14.165Z,1.80
2022-09-22T05:39:01.111Z,2.80
2022-09-22T05:41:49.865Z,3.10
2022-09-22T05:44:36.827Z,3.13
2022-09-22T05:47:23.728Z,2.10
2022-09-22T05:50:12.317Z,2.33
2022-09-22T05:53:04.554Z,2.17
2022-09-22T05:55:51.533Z,1.80
2022-09-22T05:58:38.514Z,1.90
2022-09-22T06:01:25.635Z,1.80
2022-09-22T06:04:12.630Z,2.10
2022-09-22T06:06:59.909Z,2.10
2022-09-22T06:09:47.933Z,2.43
2022-09-22T06:12:34.812Z,2.30
2022-09-22T06:15:21.794Z,1.80
2022-09-22T06:18:14.982Z,2.20
2022-09-22T06:21:02.361Z,2.80
2022-09-22T06:23:49.705Z,2.93
2022-09-22T06:26:36.714Z,2.70
2022-09-22T06:29:23.661Z,2.20
2022-09-22T06:32:10.735Z,2.70
2022-09-22T06:35:02.487Z,3.07
2022-09-22T06:37:56.749Z,3.30
2022-09-22T06:40:44.222Z,2.97
2022-09-22T06:43:32.918Z,3.07
2022-09-22T06:46:20.623Z,4.03
2022-09-22T06:49:07.858Z,4.40
2022-09-22T06:51:55.086Z,4.20
2022-09-22T06:54:42.715Z,3.80
2022-09-22T06:57:30.482Z,3.20
2022-09-22T07:00:17.941Z,3.47
2022-09-22T07:03:08.573Z,4.07
2022-09-22T07:06:02.165Z,3.70
2022-09-22T07:08:49.247Z,3.53
2022-09-22T07:11:39.772Z,2.70
2022-09-22T07:14:28.186Z,3.07
2022-09-22T07:17:18.498Z,2.90
2022-09-22T07:20:05.971Z,3.00
2022-09-22T07:23:00.766Z,2.97
2022-09-22T07:25:56.294Z,3.27
2022-09-22T07:28:44.506Z,3.47
2022-09-22T07:31:34.567Z,3.23
2022-09-22T07:34:21.550Z,3.50
2022-09-22T07:37:09.033Z,3.03
2022-09-22T07:39:56.355Z,2.90
2022-09-22T07:42:48.634Z,2.73
2022-09-22T07:45:35.553Z,2.20
2022-09-22T07:48:43.072Z,2.30
2022-09-22T07:51:30.366Z,2.10
2022-09-22T07:54:17.335Z,2.00
2022-09-22T07:57:09.444Z,1.97
2022-09-22T07:59:57.521Z,2.00
2022-09-22T08:02:50.506Z,1.70
2022-09-22T08:05:39.360Z,1.70
2022-09-22T08:08:27.130Z,1.77
2022-09-22T08:11:17.284Z,1.90
2022-09-22T08:14:06.900Z,1.73
2022-09-22T08:16:54.150Z,1.70
2022-09-22T08:19:41.492Z,1.70
2022-09-22T08:22:28.706Z,2.10
2022-09-22T08:25:15.652Z,1.60
2022-09-22T08:28:02.779Z,1.70
2022-09-22T08:30:49.788Z,1.67
2022-09-22T08:33:36.748Z,1.40
2022-09-22T08:36:27.566Z,1.50
2022-09-22T08:39:15.524Z,1.53
2022-09-22T08:42:09.168Z,1.53
2022-09-22T08:45:07.976Z,1.87
2022-09-22T08:48:19.615Z,1.57
2022-09-22T08:51:39.164Z,1.70
2022-09-22T08:54:31.552Z,1.90
2022-09-22T08:57:56.776Z,1.80
2022-09-22T09:00:50.764Z,1.60
2022-09-22T09:03:52.055Z,1.50
2022-09-22T09:07:07.798Z,1.60
2022-09-22T09:10:03.207Z,1.70
2022-09-22T09:13:25.504Z,1.40
2022-09-22T09:16:44.321Z,1.33
2022-09-22T09:19:37.730Z,1.17
2022-09-22T09:22:32.055Z,1.23
2022-09-22T09:25:40.639Z,1.10
2022-09-22T09:28:40.084Z,1.50
2022-09-22T09:31:38.271Z,1.40
2022-09-22T09:34:28.958Z,1.30
2022-09-22T09:37:17.816Z,1.60
2022-09-22T09:40:07.397Z,1.57
2022-09-22T09:43:03.998Z,1.30
2022-09-22T09:46:12.828Z,1.23
2022-09-22T09:49:14.943Z,1.30
2022-09-22T09:52:04.057Z,1.47
2022-09-22T09:54:52.972Z,1.03
2022-09-22T09:58:05.613Z,1.10
2022-09-22T10:00:58.251Z,1.13
2022-09-22T10:03:48.142Z,1.20
2022-09-22T10:06:35.120Z,1.63
2022-09-22T10:09:28.634Z,1.10
2022-09-22T10:12:32.749Z,0.97
2022-09-22T10:15:25.968Z,1.27
2022-09-22T10:18:24.770Z,1.47
2022-09-22T10:21:20.652Z,1.13
2022-09-22T10:24:27.482Z,1.30
2022-09-22T10:27:20.947Z,1.30
2022-09-22T10:30:10.976Z,1.20
2022-09-22T10:33:05.578Z,1.30
2022-09-22T10:36:12.129Z,1.30
2022-09-22T10:39:00.126Z,1.20
2022-09-22T10:41:49.105Z,0.97
2022-09-22T10:44:41.877Z,0.90
2022-09-22T10:48:01.220Z,1.00
2022-09-22T10:50:50.804Z,0.90
2022-09-22T10:53:51.707Z,1.10
2022-09-22T10:56:46.270Z,0.90
2022-09-22T10:59:33.091Z,1.03
2022-09-22T11:02:22.763Z,0.90
2022-09-22T11:05:42.375Z,0.80
2022-09-22T11:09:03.075Z,0.70
2022-09-22T11:12:17.209Z,0.90
2022-09-22T11:15:24.634Z,1.17
2022-09-22T11:18:59.892Z,1.10
2022-09-22T11:22:05.272Z,1.00
2022-09-22T11:25:16.072Z,1.10
2022-09-22T11:28:34.221Z,0.90
2022-09-22T11:31:48.478Z,1.07
2022-09-22T11:35:04.482Z,0.80
2022-09-22T11:38:13.227Z,0.87
2022-09-22T11:41:14.037Z,1.00
2022-09-22T11:44:30.007Z,1.10
2022-09-22T11:47:38.183Z,1.20
2022-09-22T11:50:32.961Z,1.00
2022-09-22T11:53:35.066Z,0.90
2022-09-22T11:56:33.307Z,1.00
2022-09-22T11:59:50.440Z,1.00
2022-09-22T12:02:42.054Z,1.00
2022-09-22T12:05:48.486Z,1.30
2022-09-22T12:11:42.961Z,0.80
2022-09-22T12:14:30.199Z,1.00
2022-09-22T12:17:24.938Z,0.70
2022-09-22T12:20:38.951Z,0.80
2022-09-22T12:23:44.230Z,0.87
2022-09-22T12:26:37.022Z,0.80
2022-09-22T12:29:30.841Z,1.07
2022-09-22T12:32:24.918Z,0.73
2022-09-22T12:35:27.412Z,0.83
2022-09-22T12:38:19.771Z,1.07
2022-09-22T12:41:07.088Z,1.07
2022-09-22T12:44:08.099Z,0.87
2022-09-22T12:47:16.367Z,0.83
2022-09-22T12:50:32.117Z,0.87
2022-09-22T12:53:21.958Z,0.90
2022-09-22T12:56:43.187Z,0.80
2022-09-22T12:59:35.970Z,1.00
2022-09-22T13:02:29.329Z,0.90
2022-09-22T13:05:28.321Z,0.90
2022-09-22T13:08:23.137Z,0.80
2022-09-22T13:11:10.054Z,1.13
2022-09-22T13:13:56.973Z,0.90
2022-09-22T13:16:44.823Z,1.00
2022-09-22T13:19:31.798Z,1.00
2022-09-22T13:22:20.526Z,0.90
2022-09-22T13:25:21.778Z,0.93
2022-09-22T13:28:08.603Z,0.87
2022-09-22T13:31:05.966Z,0.80
2022-09-22T13:33:53.462Z,0.70
2022-09-22T13:36:42.945Z,0.77
2022-09-22T13:39:43.477Z,0.90
2022-09-22T13:42:33.501Z,1.00
2022-09-22T13:45:26.074Z,1.10
2022-09-22T13:48:16.616Z,1.10
2022-09-22T13:51:09.147Z,1.00
2022-09-22T13:53:57.591Z,0.97
2022-09-22T13:56:46.218Z,1.00
2022-09-22T13:59:41.113Z,1.00
2022-09-22T14:02:31.798Z,0.80
2022-09-22T14:05:23.615Z,1.37
2022-09-22T14:08:20.117Z,1.20
2022-09-22T14:11:13.306Z,1.30
2022-09-22T14:14:01.920Z,1.00
2022-09-22T14:17:03.338Z,0.60
2022-09-22T14:19:58.685Z,2.13
2022-09-22T14:22:45.603Z,0.93
2022-09-22T14:25:32.945Z,1.00
2022-09-22T14:28:23.714Z,0.80
2022-09-22T14:31:23.523Z,0.70
2022-09-22T14:34:18.503Z,0.70
2022-09-22T14:37:28.673Z,0.60
2022-09-22T14:40:19.710Z,0.87
2022-09-22T14:43:24.493Z,0.90
2022-09-22T14:46:49.878Z,0.90
2022-09-22T14:49:42.428Z,0.90
2022-09-22T14:52:32.822Z,0.63
2022-09-22T14:55:32.026Z,0.60
2022-09-22T14:58:26.632Z,0.80
2022-09-22T15:01:42.106Z,1.13
2022-09-22T15:04:30.354Z,1.57
2022-09-22T15:07:37.913Z,1.07
2022-09-22T15:10:28.167Z,0.80
2022-09-22T15:13:39.385Z,0.83
2022-09-22T15:16:40.209Z,0.70
2022-09-22T15:19:27.825Z,0.90
2022-09-22T15:22:14.999Z,0.90
2022-09-22T15:25:01.918Z,0.90
2022-09-22T15:27:53.256Z,0.67
2022-09-22T15:30:41.508Z,0.80
2022-09-22T15:33:28.436Z,0.60
2022-09-22T15:36:19.962Z,0.60
2022-09-22T15:39:19.141Z,0.67
2022-09-22T15:42:10.188Z,0.80
2022-09-22T15:44:57.272Z,0.80
2022-09-22T15:47:53.751Z,0.70
2022-09-22T15:50:40.802Z,0.70
2022-09-22T15:53:28.477Z,0.93
2022-09-22T15:56:19.021Z,0.83
2022-09-22T15:59:07.250Z,0.80
2022-09-22T16:01:57.073Z,0.90
2022-09-22T16:04:44.443Z,0.90
2022-09-22T16:07:31.421Z,0.80
2022-09-22T16:10:22.683Z,0.90
2022-09-22T16:13:11.990Z,0.70
2022-09-22T16:16:03.299Z,0.70
2022-09-22T16:18:50.341Z,0.97
2022-09-22T16:21:40.483Z,1.10
2022-09-22T16:24:28.926Z,1.07
2022-09-22T16:27:15.948Z,1.13
2022-09-22T16:30:03.225Z,0.97
2022-09-22T16:32:50.196Z,2.60
2022-09-22T16:35:37.098Z,2.50
2022-09-22T16:38:23.989Z,2.03
2022-09-22T16:41:22.599Z,1.50
2022-09-22T16:44:09.929Z,1.00
2022-09-22T16:46:58.330Z,1.00
2022-09-22T16:49:47.572Z,0.80
2022-09-22T16:52:34.629Z,0.70
2022-09-22T16:55:21.586Z,0.93
2022-09-22T16:58:13.096Z,0.70
2022-09-22T17:01:04.642Z,0.90
2022-09-22T17:03:54.833Z,0.80
2022-09-22T17:06:42.435Z,1.20
2022-09-22T17:09:31.673Z,0.80
2022-09-22T17:12:18.601Z,0.80
2022-09-22T17:15:07.171Z,0.77
2022-09-22T17:17:54.175Z,0.70
2022-09-22T17:20:41.134Z,0.90
2022-09-22T17:23:28.058Z,0.90
2022-09-22T17:26:15.255Z,0.80
2022-09-22T17:29:02.357Z,1.10
2022-09-22T17:31:49.346Z,0.90
2022-09-22T17:34:38.153Z,0.60
2022-09-22T17:37:25.110Z,0.83
2022-09-22T17:40:12.169Z,0.93
2022-09-22T17:42:59.813Z,0.80
2022-09-22T17:45:46.806Z,1.37
2022-09-22T17:48:52.779Z,0.93
2022-09-22T17:52:02.269Z,0.80
2022-09-22T17:55:07.903Z,1.00
2022-09-22T17:57:56.319Z,1.00
2022-09-22T18:00:43.249Z,0.80
2022-09-22T18:03:30.165Z,0.90
2022-09-22T18:06:19.106Z,0.90
2022-09-22T18:09:07.277Z,0.97
2022-09-22T18:11:54.192Z,0.80
2022-09-22T18:14:42.348Z,1.20
2022-09-22T18:17:32.306Z,1.23
2022-09-22T18:20:22.577Z,1.03
2022-09-22T18:23:09.537Z,1.17
2022-09-22T18:25:57.144Z,1.20
2022-09-22T18:28:44.057Z,0.90
2022-09-22T18:31:31.057Z,0.83
2022-09-22T18:34:18.003Z,1.03
2022-09-22T18:37:05.060Z,1.10
2022-09-22T18:39:52.170Z,0.83
2022-09-22T18:42:39.655Z,1.30
2022-09-22T18:45:26.989Z,0.73
2022-09-22T18:48:17.283Z,0.90
2022-09-22T18:51:06.346Z,1.73
2022-09-22T18:53:54.313Z,1.10
2022-09-22T18:56:44.217Z,0.97
2022-09-22T18:59:31.371Z,0.90
2022-09-22T19:02:23.075Z,1.50
2022-09-22T19:05:10.406Z,1.37
2022-09-22T19:07:59.284Z,1.50
2022-09-22T19:10:46.211Z,1.30
2022-09-22T19:13:33.208Z,1.73
2022-09-22T19:16:22.348Z,2.10
2022-09-22T19:19:09.991Z,1.70
2022-09-22T19:21:56.917Z,1.47
2022-09-22T19:24:46.108Z,1.50
2022-09-22T19:27:33.943Z,1.80
2022-09-22T19:30:24.761Z,1.93
2022-09-22T19:33:14.384Z,1.63
2022-09-22T19:36:01.434Z,1.30
2022-09-22T19:38:48.369Z,1.03
2022-09-22T19:41:37.260Z,1.30
2022-09-22T19:44:24.265Z,1.57
2022-09-22T19:47:11.231Z,1.50
2022-09-22T19:49:58.721Z,1.00
2022-09-22T19:52:46.034Z,0.97
2022-09-22T19:55:33.030Z,1.13
2022-09-22T19:58:19.964Z,1.47
2022-09-22T20:01:07.904Z,1.20
2022-09-22T20:03:55.377Z,1.30
2022-09-22T20:06:42.310Z,1.30
2022-09-22T20:09:29.630Z,1.20
2022-09-22T20:12:16.518Z,1.17
2022-09-22T20:15:03.649Z,1.40
2022-09-22T20:17:50.820Z,1.30
2022-09-22T20:20:37.933Z,1.20
2022-09-22T20:23:25.514Z,1.40
2022-09-22T20:26:12.451Z,1.23
2022-09-22T20:28:59.418Z,0.90
2022-09-22T20:31:46.344Z,1.17
2022-09-22T20:34:33.281Z,1.20
2022-09-22T20:37:20.221Z,1.27
2022-09-22T20:40:14.515Z,1.20
2022-09-22T20:43:01.525Z,1.40
2022-09-22T20:45:48.474Z,1.20
2022-09-22T20:48:35.488Z,1.40
2022-09-22T20:51:23.562Z,1.30
2022-09-22T20:54:10.542Z,1.30
2022-09-22T20:56:57.567Z,1.50
2022-09-22T20:59:45.670Z,1.20
2022-09-22T21:02:33.420Z,1.00
2022-09-22T21:05:21.692Z,1.17
2022-09-22T21:08:27.358Z,1.20
2022-09-22T21:11:16.100Z,1.40
2022-09-22T21:14:05.432Z,1.30
2022-09-22T21:16:52.458Z,1.27
2022-09-22T21:19:39.387Z,1.30
2022-09-22T21:22:29.031Z,1.10
2022-09-22T21:25:16.031Z,1.40
2022-09-22T21:28:02.983Z,1.00
2022-09-22T21:31:09.756Z,1.13
2022-09-22T21:33:56.826Z,1.40
2022-09-22T21:36:43.823Z,1.47
2022-09-22T21:39:30.821Z,1.40
2022-09-22T21:42:17.722Z,1.60
2022-09-22T21:45:05.006Z,1.50
2022-09-22T21:47:51.969Z,1.30
2022-09-22T21:50:39.127Z,1.53
2022-09-22T21:53:26.834Z,1.40
2022-09-22T21:56:16.395Z,1.70
2022-09-22T21:59:03.903Z,2.23
2022-09-22T22:01:50.857Z,1.90
2022-09-22T22:04:37.801Z,2.30
2022-09-22T22:07:24.725Z,2.03
2022-09-22T22:10:11.640Z,2.00
2022-09-22T22:12:58.552Z,3.00
2022-09-22T22:15:45.754Z,2.93
2022-09-22T22:18:32.798Z,3.00
2022-09-22T22:21:25.506Z,2.43
2022-09-22T22:24:17.722Z,2.20
2022-09-22T22:27:07.306Z,2.50
2022-09-22T22:29:54.219Z,2.80
2022-09-22T22:32:42.092Z,2.77
2022-09-22T22:35:29.016Z,2.57
2022-09-22T22:38:16.562Z,2.40
2022-09-22T22:41:15.647Z,1.80
2022-09-22T22:44:03.159Z,2.07
2022-09-22T22:46:50.576Z,1.80
2022-09-22T22:49:37.485Z,2.20
2022-09-22T22:52:24.365Z,2.40
2022-09-22T22:55:11.253Z,2.40
2022-09-22T22:57:58.133Z,2.23
2022-09-22T23:00:45.412Z,2.27
2022-09-22T23:03:32.319Z,2.33
2022-09-22T23:06:28.123Z,2.20
2022-09-22T23:09:16.877Z,2.60
2022-09-22T23:12:03.887Z,2.27
2022-09-22T23:14:51.161Z,2.30
2022-09-22T23:17:39.024Z,2.67
2022-09-22T23:20:26.038Z,1.70
2022-09-22T23:23:12.938Z,1.70
2022-09-22T23:26:01.440Z,1.83
2022-09-22T23:28:48.350Z,1.80
2022-09-22T23:31:35.357Z,1.83
2022-09-22T23:34:22.544Z,1.60
2022-09-22T23:37:09.567Z,2.20
2022-09-22T23:39:56.475Z,2.10
2022-09-22T23:42:44.355Z,1.93
2022-09-22T23:45:31.277Z,1.90
2022-09-22T23:48:19.875Z,1.87
2022-09-22T23:51:06.835Z,1.70
2022-09-22T23:53:53.966Z,1.80
2022-09-22T23:56:41.006Z,2.00
2022-09-22T23:59:27.969Z,2.00
